Time;durP1;ratioP1;P1;durP2;ratioP2;P2;SDS_P1;SDS_P2;PMS_P1;PMS_P2;Temp;Humidity;BMP_temperature;BMP_pressure;BME280_temperature;BME280_humidity;BME280_pressure;Samples;Min_cycle;Max_cycle;Signal;HPM_P1;HPM_P2
2022/08/05 00:00:22;;;;;;;0.70;0.60;;;25.90;66.00;;;;;;5057198;28;20455;-66
2022/08/05 00:02:54;;;;;;;0.87;0.87;;;25.90;66.20;;;;;;5061361;28;20441;-66
2022/08/05 00:05:28;;;;;;;0.70;0.70;;;25.90;66.10;;;;;;5058156;28;21870;-65
2022/08/05 00:08:19;;;;;;;0.83;0.67;;;25.70;67.20;;;;;;5060419;28;20467;-65
2022/08/05 00:11:07;;;;;;;0.50;0.50;;;25.60;67.50;;;;;;5060884;28;20522;-66
2022/08/05 00:13:58;;;;;;;1.00;0.93;;;25.60;68.50;;;;;;5055414;28;20521;-67
2022/08/05 00:16:31;;;;;;;0.60;0.60;;;25.60;68.40;;;;;;5061955;28;20844;-65
2022/08/05 00:19:21;;;;;;;1.17;0.60;;;25.60;68.60;;;;;;5062414;28;20465;-67
2022/08/05 00:21:55;;;;;;;0.67;0.67;;;25.80;68.50;;;;;;5061653;28;20453;-65
2022/08/05 00:24:26;;;;;;;2.87;0.83;;;25.70;67.60;;;;;;5060551;28;20464;-65
2022/08/05 00:27:00;;;;;;;0.87;0.60;;;25.70;69.90;;;;;;5053889;28;20561;-65
2022/08/05 00:29:39;;;;;;;0.50;0.50;;;25.80;69.00;;;;;;5059516;28;20465;-66
2022/08/05 00:32:11;;;;;;;0.63;0.60;;;25.90;69.00;;;;;;5070841;28;20465;-65
2022/08/05 00:34:45;;;;;;;0.60;0.60;;;25.80;69.80;;;;;;5069086;28;20460;-66
2022/08/05 00:37:37;;;;;;;0.73;0.73;;;25.80;68.60;;;;;;5074863;28;20474;-65
2022/08/05 00:40:26;;;;;;;0.50;0.50;;;25.60;69.90;;;;;;5084449;28;20445;-65
2022/08/05 00:43:00;;;;;;;0.70;0.60;;;25.70;69.50;;;;;;5065503;28;20449;-66
2022/08/05 00:45:36;;;;;;;0.50;0.50;;;25.60;69.50;;;;;;5064279;28;20465;-66
2022/08/05 00:48:14;;;;;;;1.37;0.70;;;25.60;69.50;;;;;;5065333;28;20480;-65
2022/08/05 00:50:46;;;;;;;0.70;0.70;;;25.60;69.40;;;;;;5068954;28;20467;-67
2022/08/05 00:53:21;;;;;;;0.60;0.60;;;25.50;70.60;;;;;;5064781;28;20463;-66
2022/08/05 00:56:11;;;;;;;0.80;0.80;;;25.30;69.70;;;;;;5068155;28;20489;-67
2022/08/05 00:58:46;;;;;;;0.93;0.93;;;25.10;69.60;;;;;;5071371;28;20574;-67
2022/08/05 01:01:17;;;;;;;1.63;1.53;;;25.10;69.30;;;;;;5064556;28;20472;-67
2022/08/05 01:04:08;;;;;;;0.80;0.80;;;25.00;70.20;;;;;;5064063;28;20506;-68
2022/08/05 01:06:44;;;;;;;0.93;0.77;;;25.10;70.70;;;;;;5053469;28;20495;-67
2022/08/05 01:09:19;;;;;;;0.73;0.73;;;25.00;69.90;;;;;;5074372;28;20498;-67
2022/08/05 01:11:52;;;;;;;0.70;0.57;;;25.10;70.00;;;;;;5073641;28;20518;-67
2022/08/05 01:14:31;;;;;;;0.70;0.70;;;25.10;70.70;;;;;;5065154;28;20599;-67
2022/08/05 01:17:06;;;;;;;0.97;0.80;;;25.10;70.00;;;;;;5073692;28;20493;-66
2022/08/05 01:19:41;;;;;;;0.93;0.90;;;24.90;69.10;;;;;;5073744;28;20463;-66
2022/08/05 01:22:43;;;;;;;1.57;1.00;;;24.80;70.00;;;;;;5063803;28;20449;-65
2022/08/05 01:25:45;;;;;;;0.80;0.80;;;24.70;70.50;;;;;;5070859;28;20484;-65
2022/08/05 01:28:33;;;;;;;0.73;0.67;;;24.60;70.10;;;;;;5061701;28;20484;-66
2022/08/05 01:31:11;;;;;;;0.60;0.60;;;24.50;70.60;;;;;;5084441;28;20522;-66
2022/08/05 01:33:49;;;;;;;0.83;0.83;;;24.50;70.80;;;;;;5078048;28;20460;-65
2022/08/05 01:36:29;;;;;;;0.70;0.70;;;24.40;71.50;;;;;;5073040;28;20487;-66
2022/08/05 01:39:02;;;;;;;2.30;0.63;;;24.20;72.80;;;;;;5053825;28;20468;-65
2022/08/05 01:41:36;;;;;;;0.77;0.77;;;24.20;73.50;;;;;;5073076;28;20494;-65
2022/08/05 01:44:17;;;;;;;0.73;0.70;;;24.10;72.80;;;;;;5071091;28;20581;-65
2022/08/05 01:46:49;;;;;;;0.70;0.70;;;24.10;73.00;;;;;;5070494;28;20571;-65
2022/08/05 01:49:24;;;;;;;0.50;0.50;;;24.10;72.60;;;;;;5069928;28;20460;-65
2022/08/05 01:52:15;;;;;;;1.03;1.00;;;23.90;74.10;;;;;;5063632;28;20924;-64
2022/08/05 01:54:53;;;;;;;1.23;0.80;;;23.90;74.00;;;;;;5063722;28;20464;-64
2022/08/05 01:57:30;;;;;;;0.80;0.80;;;23.80;74.70;;;;;;5067376;28;20853;-64
2022/08/05 02:00:22;;;;;;;0.73;0.73;;;23.70;74.00;;;;;;5067180;28;20452;-63
2022/08/05 02:03:04;;;;;;;0.60;0.60;;;23.60;74.20;;;;;;5077306;28;20501;-63
2022/08/05 02:05:37;;;;;;;0.90;0.67;;;23.50;74.30;;;;;;5072251;28;20460;-64
2022/08/05 02:08:11;;;;;;;0.80;0.80;;;23.40;74.60;;;;;;5067344;28;20500;-65
2022/08/05 02:11:07;;;;;;;0.83;0.83;;;23.50;75.40;;;;;;5068479;28;21005;-64
2022/08/05 02:13:47;;;;;;;0.80;0.63;;;23.40;74.90;;;;;;5069978;28;20461;-65
2022/08/05 02:16:27;;;;;;;0.97;0.77;;;23.40;75.40;;;;;;5060553;28;20539;-65
2022/08/05 02:19:04;;;;;;;1.40;1.00;;;23.20;76.50;;;;;;5070024;28;20456;-66
2022/08/05 02:21:39;;;;;;;0.90;0.60;;;23.10;76.90;;;;;;5062739;28;20456;-66
2022/08/05 02:24:19;;;;;;;0.87;0.87;;;23.10;77.50;;;;;;5063900;28;20472;-66
2022/08/05 02:26:56;;;;;;;0.97;0.93;;;23.00;78.30;;;;;;5054315;28;20470;-67
2022/08/05 02:29:29;;;;;;;0.70;0.70;;;22.90;78.90;;;;;;5051799;28;20813;-67
2022/08/05 02:32:23;;;;;;;1.10;0.90;;;22.90;79.60;;;;;;5058879;28;20452;-67
2022/08/05 02:35:04;;;;;;;0.77;0.77;;;22.80;77.80;;;;;;5069919;28;20542;-64
2022/08/05 02:37:44;;;;;;;1.20;1.10;;;22.70;78.50;;;;;;5073175;28;20457;-65
2022/08/05 02:40:24;;;;;;;0.80;0.80;;;22.60;79.40;;;;;;5066500;28;20447;-65
2022/08/05 02:42:57;;;;;;;1.40;1.20;;;22.60;80.00;;;;;;5083100;28;20459;-63
2022/08/05 02:45:29;;;;;;;0.93;0.83;;;22.50;79.90;;;;;;5074691;28;20462;-65
2022/08/05 02:48:23;;;;;;;1.43;0.77;;;22.30;80.30;;;;;;5081277;28;20487;-64
2022/08/05 02:51:00;;;;;;;1.40;1.30;;;22.30;81.00;;;;;;5062092;28;20916;-65
2022/08/05 02:53:32;;;;;;;1.00;0.90;;;22.20;81.00;;;;;;5055194;28;20444;-67
2022/08/05 02:56:11;;;;;;;0.70;0.70;;;22.10;81.90;;;;;;5062626;28;20467;-67
2022/08/05 02:58:48;;;;;;;0.93;0.93;;;22.00;83.20;;;;;;5067281;28;20490;-66
2022/08/05 03:01:24;;;;;;;0.77;0.77;;;21.90;83.20;;;;;;5052684;28;20463;-66
2022/08/05 03:04:02;;;;;;;0.60;0.60;;;21.80;83.00;;;;;;5062340;28;20468;-66
2022/08/05 03:06:43;;;;;;;2.00;1.00;;;21.70;82.90;;;;;;5057824;28;20855;-67
2022/08/05 03:09:28;;;;;;;1.13;0.87;;;21.70;83.40;;;;;;5073989;28;20525;-66
2022/08/05 03:12:29;;;;;;;1.23;0.93;;;21.60;83.10;;;;;;5066150;28;20463;-66
2022/08/05 03:15:01;;;;;;;1.33;1.13;;;21.50;83.70;;;;;;5049730;28;20450;-67
2022/08/05 03:17:36;;;;;;;1.07;0.90;;;21.50;84.90;;;;;;5053585;28;20447;-66
2022/08/05 03:20:13;;;;;;;0.70;0.70;;;21.40;84.80;;;;;;5059689;28;20442;-66
2022/08/05 03:22:44;;;;;;;0.80;0.80;;;21.30;85.90;;;;;;5056946;28;20456;-67
2022/08/05 03:25:21;;;;;;;0.80;0.80;;;21.20;86.40;;;;;;5063049;28;20459;-66
2022/08/05 03:28:12;;;;;;;0.90;0.90;;;21.20;86.60;;;;;;5064508;28;20514;-66
2022/08/05 03:30:49;;;;;;;1.00;0.90;;;21.20;85.70;;;;;;5071682;28;20463;-66
2022/08/05 03:33:24;;;;;;;0.97;0.97;;;21.10;86.00;;;;;;5070695;28;20455;-67
2022/08/05 03:36:16;;;;;;;0.93;0.90;;;21.00;86.80;;;;;;5059512;28;20484;-67
2022/08/05 03:38:59;;;;;;;0.70;0.70;;;21.00;87.50;;;;;;5056402;28;20456;-66
2022/08/05 03:41:30;;;;;;;0.97;0.97;;;20.90;88.00;;;;;;5070289;28;20460;-66
2022/08/05 03:44:07;;;;;;;1.20;1.10;;;20.90;88.50;;;;;;5064113;28;20467;-67
2022/08/05 03:46:40;;;;;;;2.03;0.90;;;20.70;89.90;;;;;;5063686;28;20472;-67
2022/08/05 03:49:15;;;;;;;1.20;1.10;;;20.70;89.20;;;;;;5068788;28;20462;-66
2022/08/05 03:51:55;;;;;;;0.80;0.67;;;20.60;89.80;;;;;;5062117;28;20793;-67
2022/08/05 03:54:53;;;;;;;1.03;1.03;;;20.50;89.80;;;;;;5073634;28;20448;-67
2022/08/05 03:57:47;;;;;;;1.03;1.00;;;20.50;90.10;;;;;;5072333;28;20507;-67
2022/08/05 04:00:20;;;;;;;0.90;0.90;;;20.40;90.30;;;;;;5062156;28;20535;-66
2022/08/05 04:02:55;;;;;;;0.97;0.83;;;20.30;90.70;;;;;;5060634;28;20504;-66
2022/08/05 04:05:33;;;;;;;0.83;0.83;;;20.20;90.90;;;;;;5070418;28;20466;-66
2022/08/05 04:08:08;;;;;;;2.13;1.10;;;20.20;91.30;;;;;;5065742;28;20466;-66
2022/08/05 04:10:59;;;;;;;0.70;0.70;;;20.20;91.90;;;;;;5064732;28;20452;-66
2022/08/05 04:13:31;;;;;;;1.20;1.10;;;20.10;92.40;;;;;;5064445;28;20479;-68
2022/08/05 04:16:19;;;;;;;1.20;1.10;;;20.10;92.90;;;;;;5058891;28;20439;-67
2022/08/05 04:18:53;;;;;;;0.83;0.83;;;20.00;93.40;;;;;;5065536;28;20484;-69
2022/08/05 04:21:26;;;;;;;1.20;1.10;;;19.90;93.90;;;;;;5068313;28;20918;-69
2022/08/05 04:24:19;;;;;;;0.90;0.90;;;19.80;94.30;;;;;;5058109;28;20452;-68
2022/08/05 04:26:51;;;;;;;1.03;1.00;;;19.80;94.80;;;;;;5048572;28;20449;-68
2022/08/05 04:29:23;;;;;;;1.00;0.90;;;19.70;94.80;;;;;;5059536;28;20470;-68
2022/08/05 04:31:56;;;;;;;0.90;0.90;;;19.60;95.20;;;;;;5058087;28;20466;-68
2022/08/05 04:34:26;;;;;;;1.20;1.00;;;19.60;95.40;;;;;;5063739;28;20603;-69
2022/08/05 04:37:03;;;;;;;0.97;0.90;;;19.70;95.30;;;;;;5060375;28;20905;-67
2022/08/05 04:39:36;;;;;;;1.10;1.00;;;19.60;95.40;;;;;;5060512;28;20460;-68
2022/08/05 04:42:08;;;;;;;0.80;0.80;;;19.60;95.50;;;;;;5060659;28;20497;-67
2022/08/05 04:44:40;;;;;;;1.13;0.93;;;19.60;95.80;;;;;;5063838;28;20647;-67
2022/08/05 04:47:10;;;;;;;2.30;1.00;;;19.50;96.00;;;;;;5063190;28;20431;-68
2022/08/05 04:49:47;;;;;;;1.30;1.20;;;19.50;96.10;;;;;;5067894;28;20618;-69
2022/08/05 04:52:38;;;;;;;1.30;1.20;;;19.30;96.80;;;;;;5059258;28;20464;-69
2022/08/05 04:55:11;;;;;;;0.97;0.80;;;19.20;97.50;;;;;;5061036;28;20475;-70
2022/08/05 04:57:46;;;;;;;1.23;1.13;;;19.20;97.60;;;;;;5060097;28;20548;-68
2022/08/05 05:00:23;;;;;;;1.00;1.00;;;19.10;98.10;;;;;;5058168;28;20471;-68
2022/08/05 05:02:54;;;;;;;1.30;1.20;;;19.10;98.90;;;;;;5057322;28;20448;-68
2022/08/05 05:05:32;;;;;;;0.90;0.90;;;19.10;98.90;;;;;;5054566;28;20449;-68
2022/08/05 05:08:22;;;;;;;1.20;1.10;;;19.10;98.30;;;;;;5060850;28;20463;-68
2022/08/05 05:11:00;;;;;;;1.30;1.20;;;19.00;98.60;;;;;;5063468;28;20499;-68
2022/08/05 05:13:31;;;;;;;1.17;0.90;;;19.00;99.00;;;;;;5061935;28;20458;-68
2022/08/05 05:16:12;;;;;;;1.03;0.93;;;18.90;99.60;;;;;;5064611;28;20479;-68
2022/08/05 05:18:48;;;;;;;1.63;1.10;;;18.90;99.70;;;;;;5064714;28;20429;-69
2022/08/05 05:21:39;;;;;;;1.23;1.13;;;18.80;99.60;;;;;;5057761;28;20492;-67
2022/08/05 05:24:10;;;;;;;1.03;0.90;;;18.80;99.80;;;;;;5063855;28;20437;-67
2022/08/05 05:26:42;;;;;;;0.90;0.83;;;18.70;99.80;;;;;;5063129;28;20426;-67
2022/08/05 05:29:16;;;;;;;1.30;1.00;;;18.70;99.80;;;;;;5063197;28;20466;-67
2022/08/05 05:31:47;;;;;;;2.10;1.40;;;18.70;99.90;;;;;;5075318;28;20440;-67
2022/08/05 05:34:19;;;;;;;1.07;1.07;;;18.70;99.90;;;;;;5078828;28;20520;-67
2022/08/05 05:36:56;;;;;;;1.03;0.87;;;18.60;99.90;;;;;;5071188;28;20508;-67
2022/08/05 05:39:26;;;;;;;1.10;1.00;;;18.60;99.90;;;;;;5064161;28;20459;-67
2022/08/05 05:42:05;;;;;;;1.00;0.80;;;18.60;99.90;;;;;;5064474;28;20462;-67
2022/08/05 05:44:36;;;;;;;1.47;1.23;;;18.50;99.90;;;;;;5067341;28;20534;-68
2022/08/05 05:47:14;;;;;;;0.80;0.80;;;18.40;99.90;;;;;;5084670;28;20410;-67
2022/08/05 05:49:51;;;;;;;0.77;0.70;;;18.40;99.90;;;;;;5069303;28;20462;-68
2022/08/05 05:52:30;;;;;;;1.17;1.07;;;18.40;99.90;;;;;;5063567;28;20448;-67
2022/08/05 05:55:11;;;;;;;1.80;1.00;;;18.40;99.90;;;;;;5065190;28;20501;-67
2022/08/05 05:57:45;;;;;;;0.60;0.60;;;18.40;99.90;;;;;;5075758;28;20956;-68
2022/08/05 06:00:23;;;;;;;1.17;0.90;;;18.40;99.90;;;;;;5067182;28;20445;-68
2022/08/05 06:03:02;;;;;;;1.00;0.93;;;18.30;99.90;;;;;;5064194;28;20449;-67
2022/08/05 06:05:53;;;;;;;1.53;1.20;;;18.20;99.90;;;;;;5062409;28;20495;-67
2022/08/05 06:08:25;;;;;;;1.80;1.00;;;18.20;99.90;;;;;;5065647;28;20435;-67
2022/08/05 06:11:01;;;;;;;1.00;1.00;;;18.20;99.90;;;;;;5077645;28;20469;-68
2022/08/05 06:13:36;;;;;;;2.30;1.40;;;18.10;99.90;;;;;;5064005;28;20514;-67
2022/08/05 06:16:19;;;;;;;1.20;1.10;;;18.10;99.90;;;;;;5062305;28;20523;-67
2022/08/05 06:19:01;;;;;;;1.20;1.10;;;18.10;99.90;;;;;;5067978;28;20479;-67
2022/08/05 06:21:37;;;;;;;1.50;1.40;;;18.00;99.90;;;;;;5071406;28;20456;-67
2022/08/05 06:24:18;;;;;;;0.90;0.80;;;18.00;99.90;;;;;;5060062;28;20466;-68
2022/08/05 06:26:56;;;;;;;1.03;0.90;;;18.00;99.90;;;;;;5068964;28;20434;-67
2022/08/05 06:29:28;;;;;;;0.73;0.73;;;17.90;99.90;;;;;;5061987;28;20466;-68
2022/08/05 06:32:19;;;;;;;1.00;0.90;;;17.90;99.90;;;;;;5061051;28;20959;-67
2022/08/05 06:34:58;;;;;;;1.23;1.13;;;17.90;99.90;;;;;;5073779;28;20568;-67
2022/08/05 06:37:44;;;;;;;0.80;0.77;;;17.80;99.90;;;;;;5062446;28;20555;-67
2022/08/05 06:40:27;;;;;;;1.43;1.00;;;17.80;99.90;;;;;;5078527;28;20496;-67
2022/08/05 06:43:01;;;;;;;1.27;1.17;;;17.80;99.90;;;;;;5062490;28;20517;-67
2022/08/05 06:45:34;;;;;;;2.33;1.10;;;17.70;99.90;;;;;;5064506;28;20818;-67
2022/08/05 06:48:25;;;;;;;1.50;1.27;;;17.70;99.90;;;;;;5060147;28;20744;-67
2022/08/05 06:51:16;;;;;;;1.53;1.20;;;17.60;99.90;;;;;;5048833;28;20488;-68
2022/08/05 06:53:58;;;;;;;1.40;1.00;;;17.60;99.90;;;;;;5062918;28;20498;-67
2022/08/05 06:56:31;;;;;;;0.97;0.90;;;17.60;99.90;;;;;;5062572;28;20455;-67
2022/08/05 06:59:04;;;;;;;1.00;1.00;;;17.60;99.90;;;;;;5066392;28;20567;-67
2022/08/05 07:01:42;;;;;;;1.20;1.10;;;17.60;99.90;;;;;;5062426;28;20467;-67
2022/08/05 07:04:14;;;;;;;0.90;0.90;;;17.50;99.90;;;;;;5061493;28;20497;-67
2022/08/05 07:06:47;;;;;;;1.30;1.00;;;17.40;99.90;;;;;;5052630;28;20487;-68
2022/08/05 07:09:19;;;;;;;2.03;1.10;;;17.40;99.90;;;;;;5062835;28;20452;-67
2022/08/05 07:11:54;;;;;;;1.27;1.07;;;17.40;99.90;;;;;;5061147;28;20464;-67
2022/08/05 07:17:18;;;;;;;1.03;0.90;;;17.30;99.90;;;;;;5057275;28;20516;-67
2022/08/05 07:20:09;;;;;;;1.00;1.00;;;17.40;99.90;;;;;;5061667;28;20441;-67
2022/08/05 07:23:00;;;;;;;0.80;0.80;;;17.30;99.90;;;;;;5071442;28;20478;-68
2022/08/05 07:25:33;;;;;;;1.17;1.07;;;17.30;99.90;;;;;;5059464;28;20513;-68
2022/08/05 07:28:24;;;;;;;0.93;0.90;;;17.20;99.90;;;;;;5061135;28;20513;-67
2022/08/05 07:30:54;;;;;;;1.20;0.97;;;17.10;99.90;;;;;;5061231;28;20503;-67
2022/08/05 07:33:27;;;;;;;1.00;0.97;;;17.10;99.90;;;;;;5064322;28;20472;-67
2022/08/05 07:36:07;;;;;;;1.23;1.00;;;17.00;99.90;;;;;;5059624;28;20468;-67
2022/08/05 07:38:49;;;;;;;1.60;1.07;;;17.00;99.90;;;;;;5064337;28;20455;-67
2022/08/05 07:41:25;;;;;;;1.00;0.90;;;17.00;99.90;;;;;;5070045;28;20447;-66
2022/08/05 07:44:15;;;;;;;1.10;1.03;;;17.00;99.90;;;;;;5057313;28;20456;-66
2022/08/05 07:46:49;;;;;;;1.23;1.13;;;17.00;99.90;;;;;;5045697;28;20768;-66
2022/08/05 07:49:21;;;;;;;1.23;1.00;;;16.90;99.90;;;;;;5051174;28;20463;-67
2022/08/05 07:51:52;;;;;;;1.20;1.10;;;16.80;99.90;;;;;;5063983;28;20498;-66
2022/08/05 07:54:26;;;;;;;1.80;1.47;;;16.90;99.90;;;;;;5050287;28;20558;-67
2022/08/05 07:57:00;;;;;;;0.90;0.90;;;16.80;99.90;;;;;;5067560;28;20755;-67
2022/08/05 07:59:51;;;;;;;1.23;1.13;;;16.80;99.90;;;;;;5069114;28;20472;-67
2022/08/05 08:02:26;;;;;;;1.40;1.00;;;16.80;99.90;;;;;;5063328;28;21011;-67
2022/08/05 08:05:19;;;;;;;0.93;0.80;;;16.70;99.90;;;;;;5064472;28;20497;-67
2022/08/05 08:07:49;;;;;;;1.07;0.93;;;16.60;99.90;;;;;;5068327;28;20487;-67
2022/08/05 08:10:29;;;;;;;1.00;0.90;;;16.60;99.90;;;;;;5060975;28;20495;-67
2022/08/05 08:13:01;;;;;;;1.23;1.10;;;16.60;99.90;;;;;;5066718;28;20455;-67
2022/08/05 08:15:32;;;;;;;1.67;1.30;;;16.60;99.90;;;;;;5061115;28;20944;-66
2022/08/05 08:18:23;;;;;;;1.10;1.00;;;16.50;99.90;;;;;;5073234;28;20572;-67
2022/08/05 08:20:56;;;;;;;1.07;0.83;;;16.50;99.90;;;;;;5050572;28;20518;-67
2022/08/05 08:23:32;;;;;;;1.10;1.00;;;16.40;99.90;;;;;;5064687;28;20456;-67
2022/08/05 08:26:23;;;;;;;0.97;0.93;;;16.40;99.90;;;;;;5060492;28;20464;-67
2022/08/05 08:28:59;;;;;;;1.03;1.03;;;16.30;99.90;;;;;;5064370;28;20614;-67
2022/08/05 08:31:50;;;;;;;1.20;1.17;;;16.20;99.90;;;;;;5060504;28;20492;-67
2022/08/05 08:34:23;;;;;;;1.43;1.23;;;16.20;99.90;;;;;;5066212;28;20795;-66
2022/08/05 08:37:03;;;;;;;1.37;1.10;;;16.20;99.90;;;;;;5058680;28;20427;-66
2022/08/05 08:39:34;;;;;;;1.30;1.20;;;16.10;99.90;;;;;;5065166;28;20458;-66
2022/08/05 08:42:09;;;;;;;1.17;1.13;;;16.10;99.90;;;;;;5063002;28;20514;-66
2022/08/05 08:45:00;;;;;;;1.30;1.20;;;16.10;99.90;;;;;;5081167;28;20448;-66
2022/08/05 08:47:52;;;;;;;1.23;1.13;;;16.10;99.90;;;;;;5074652;28;20460;-66
2022/08/05 08:50:46;;;;;;;1.57;1.47;;;16.00;99.90;;;;;;5064998;28;20462;-66
2022/08/05 08:53:40;;;;;;;2.17;1.20;;;16.00;99.90;;;;;;5071960;28;20536;-67
2022/08/05 08:56:14;;;;;;;1.20;1.10;;;16.00;99.90;;;;;;5063730;28;20463;-67
2022/08/05 08:58:46;;;;;;;1.50;1.40;;;16.00;99.90;;;;;;5071985;28;20544;-67
2022/08/05 09:01:20;;;;;;;1.67;0.97;;;15.90;99.90;;;;;;5066786;28;20441;-66
2022/08/05 09:03:52;;;;;;;1.27;1.00;;;15.90;99.90;;;;;;5070483;28;20529;-67
2022/08/05 09:06:27;;;;;;;1.40;1.17;;;15.80;99.90;;;;;;5058213;28;20459;-66
2022/08/05 09:09:02;;;;;;;0.90;0.90;;;15.80;99.90;;;;;;5063576;28;20468;-66
2022/08/05 09:11:35;;;;;;;1.57;1.47;;;15.80;99.90;;;;;;5065840;28;20480;-66
2022/08/05 09:14:22;;;;;;;2.03;1.40;;;15.90;99.90;;;;;;5065351;28;20466;-67
2022/08/05 09:17:13;;;;;;;1.80;1.43;;;15.90;99.90;;;;;;5064247;28;20451;-66
2022/08/05 09:20:05;;;;;;;2.57;1.27;;;15.80;99.90;;;;;;5064714;28;20456;-67
2022/08/05 09:23:06;;;;;;;2.20;1.10;;;15.80;99.90;;;;;;5062135;28;20935;-66
2022/08/05 09:25:41;;;;;;;1.07;0.97;;;15.70;99.90;;;;;;5057152;28;20468;-66
2022/08/05 09:28:32;;;;;;;2.00;1.23;;;15.70;99.90;;;;;;5063421;28;20477;-66
2022/08/05 09:31:05;;;;;;;1.50;1.40;;;15.70;99.90;;;;;;5059600;28;20567;-66
2022/08/05 09:33:57;;;;;;;1.50;1.40;;;15.70;99.90;;;;;;5056878;28;20435;-66
2022/08/05 09:36:41;;;;;;;1.40;1.30;;;15.60;99.90;;;;;;5061492;28;20472;-67
2022/08/05 09:39:26;;;;;;;2.20;1.77;;;15.60;99.90;;;;;;5059352;28;20460;-67
2022/08/05 09:42:19;;;;;;;1.67;1.30;;;15.50;99.90;;;;;;5073833;28;20493;-67
2022/08/05 09:44:57;;;;;;;1.63;1.13;;;15.60;99.90;;;;;;5066576;28;20425;-66
2022/08/05 09:47:48;;;;;;;2.00;1.80;;;15.50;99.90;;;;;;5066474;28;20471;-66
2022/08/05 09:50:36;;;;;;;3.00;1.67;;;15.50;99.90;;;;;;5063697;28;20492;-66
2022/08/05 09:53:14;;;;;;;1.10;1.00;;;15.50;99.90;;;;;;5054060;28;21107;-66
2022/08/05 09:55:59;;;;;;;2.30;1.37;;;15.50;99.90;;;;;;5063445;28;20540;-66
2022/08/05 09:58:41;;;;;;;1.40;1.30;;;15.40;99.90;;;;;;5063695;28;20801;-66
2022/08/05 10:01:19;;;;;;;1.30;1.13;;;15.40;99.90;;;;;;5074831;28;20577;-66
2022/08/05 10:04:03;;;;;;;2.10;1.37;;;15.40;99.90;;;;;;5055477;28;20467;-66
2022/08/05 10:06:40;;;;;;;1.70;1.40;;;15.30;99.90;;;;;;5060897;28;20460;-67
2022/08/05 10:09:28;;;;;;;1.60;1.50;;;15.40;99.90;;;;;;5058289;28;20452;-67
2022/08/05 10:12:14;;;;;;;3.23;1.67;;;15.30;99.90;;;;;;5070358;28;20892;-66
2022/08/05 10:15:17;;;;;;;3.00;1.77;;;15.20;99.90;;;;;;5071298;28;20516;-66
2022/08/05 10:18:06;;;;;;;1.50;1.40;;;15.20;99.90;;;;;;5062536;28;20457;-66
2022/08/05 10:20:39;;;;;;;1.50;1.40;;;15.10;99.90;;;;;;5062862;28;20463;-66
2022/08/05 10:23:12;;;;;;;1.20;1.03;;;15.10;99.90;;;;;;5061769;28;20514;-67
2022/08/05 10:26:05;;;;;;;1.70;1.30;;;15.10;99.90;;;;;;5064594;28;20463;-67
2022/08/05 10:28:44;;;;;;;1.37;1.27;;;15.10;99.90;;;;;;5064568;28;20488;-66
2022/08/05 10:31:18;;;;;;;2.00;1.20;;;15.10;99.90;;;;;;5049213;28;20460;-67
2022/08/05 10:34:09;;;;;;;2.30;1.30;;;15.10;99.90;;;;;;5060205;28;20460;-67
2022/08/05 10:36:42;;;;;;;1.70;1.50;;;15.00;99.90;;;;;;5061677;28;20456;-67
2022/08/05 10:39:16;;;;;;;1.50;1.40;;;14.90;99.90;;;;;;5065598;28;20826;-66
2022/08/05 10:42:00;;;;;;;1.40;1.20;;;14.90;99.90;;;;;;5061791;28;20466;-67
2022/08/05 10:44:33;;;;;;;2.23;1.17;;;14.80;99.90;;;;;;5072610;28;20516;-67
2022/08/05 10:47:14;;;;;;;2.60;1.60;;;14.80;99.90;;;;;;5066310;28;20464;-67
2022/08/05 10:50:08;;;;;;;2.13;1.50;;;14.80;99.90;;;;;;5062722;28;20499;-67
2022/08/05 10:52:59;;;;;;;3.00;1.50;;;14.70;99.90;;;;;;5068504;28;20491;-67
2022/08/05 10:55:31;;;;;;;2.20;1.60;;;14.70;99.90;;;;;;5061250;28;20461;-67
2022/08/05 10:58:22;;;;;;;1.90;1.70;;;14.70;99.90;;;;;;5060239;28;20488;-67
2022/08/05 11:01:12;;;;;;;2.80;1.30;;;14.70;99.90;;;;;;5065223;28;20465;-67
2022/08/05 11:04:07;;;;;;;2.77;1.77;;;14.70;99.90;;;;;;5068807;28;20471;-67
2022/08/05 11:07:05;;;;;;;1.93;1.43;;;14.60;99.90;;;;;;5062130;28;20459;-66
2022/08/05 11:09:49;;;;;;;1.80;1.70;;;14.60;99.90;;;;;;5059332;28;20467;-67
2022/08/05 11:12:47;;;;;;;1.13;1.00;;;14.50;99.90;;;;;;5061505;28;20557;-66
2022/08/05 11:15:29;;;;;;;2.77;1.43;;;14.50;99.90;;;;;;5059284;28;20533;-67
2022/08/05 11:18:28;;;;;;;2.77;1.80;;;14.40;99.90;;;;;;5060990;28;20426;-66
2022/08/05 11:21:03;;;;;;;2.67;1.60;;;14.30;99.90;;;;;;5060968;28;20528;-66
2022/08/05 11:23:52;;;;;;;3.20;1.60;;;14.30;99.90;;;;;;5060900;28;20488;-66
2022/08/05 11:26:43;;;;;;;1.50;1.20;;;14.40;99.90;;;;;;5061556;28;20455;-66
2022/08/05 11:29:45;;;;;;;1.97;1.70;;;14.30;99.90;;;;;;5062467;28;20551;-66
2022/08/05 11:32:26;;;;;;;2.23;1.50;;;14.30;99.90;;;;;;5038606;28;20592;-66
2022/08/05 11:34:58;;;;;;;1.50;1.33;;;14.30;99.90;;;;;;5032777;28;20503;-66
2022/08/05 11:38:02;;;;;;;2.87;2.00;;;14.30;99.90;;;;;;5038630;28;20507;-66
2022/08/05 11:41:01;;;;;;;1.27;1.17;;;14.30;99.90;;;;;;4992071;28;20455;-67
2022/08/05 11:43:57;;;;;;;1.60;1.43;;;14.20;99.90;;;;;;4999755;28;20480;-66
2022/08/05 11:46:38;;;;;;;1.50;1.40;;;14.20;99.90;;;;;;4999685;28;20451;-66
2022/08/05 11:49:29;;;;;;;1.63;1.47;;;14.30;99.90;;;;;;4998873;28;20455;-66
2022/08/05 11:52:03;;;;;;;1.40;1.30;;;14.20;99.90;;;;;;4997110;28;20461;-66
2022/08/05 11:54:42;;;;;;;1.90;1.73;;;14.00;99.90;;;;;;4998952;28;20490;-66
2022/08/05 11:57:30;;;;;;;1.93;1.40;;;14.00;99.90;;;;;;4998378;28;20557;-66
2022/08/05 12:00:30;;;;;;;2.03;1.63;;;14.00;99.90;;;;;;4999029;28;20458;-66
2022/08/05 12:03:21;;;;;;;2.60;1.63;;;14.00;99.90;;;;;;4989316;28;21242;-67
2022/08/05 12:06:02;;;;;;;1.33;1.20;;;14.00;99.90;;;;;;4997619;28;20987;-66
2022/08/05 12:08:46;;;;;;;2.37;1.40;;;14.00;99.90;;;;;;5010890;28;20454;-67
2022/08/05 12:11:23;;;;;;;1.77;1.63;;;13.90;99.90;;;;;;5013644;28;20457;-67
2022/08/05 12:14:09;;;;;;;2.00;1.70;;;13.90;99.90;;;;;;5027626;28;20991;-66
2022/08/05 12:16:41;;;;;;;1.60;1.50;;;13.90;99.90;;;;;;5065818;28;20459;-66
2022/08/05 12:19:16;;;;;;;2.43;1.50;;;13.90;99.90;;;;;;5061124;28;20468;-67
2022/08/05 12:22:07;;;;;;;1.70;1.40;;;13.80;99.90;;;;;;5060016;28;20456;-67
2022/08/05 12:24:43;;;;;;;1.40;1.23;;;13.80;99.90;;;;;;5071546;28;20483;-66
2022/08/05 12:27:25;;;;;;;1.93;1.73;;;13.80;99.90;;;;;;5062798;28;20568;-66
2022/08/05 12:30:03;;;;;;;5.20;1.90;;;13.80;99.90;;;;;;5064713;28;20471;-67
2022/08/05 12:32:34;;;;;;;1.60;1.50;;;13.80;99.90;;;;;;5065447;28;20488;-67
2022/08/05 12:35:09;;;;;;;2.13;1.70;;;13.70;99.90;;;;;;5066617;28;20794;-67
2022/08/05 12:37:48;;;;;;;1.97;1.77;;;13.70;99.90;;;;;;5064346;28;20527;-66
2022/08/05 12:40:24;;;;;;;1.70;1.40;;;13.70;99.90;;;;;;5061371;28;20461;-66
2022/08/05 12:43:00;;;;;;;1.20;1.10;;;13.70;99.90;;;;;;5063156;28;20478;-67
2022/08/05 12:45:31;;;;;;;1.40;1.30;;;13.70;99.90;;;;;;5065393;28;20470;-66
2022/08/05 12:48:18;;;;;;;1.47;1.10;;;13.70;99.90;;;;;;5065331;28;20547;-67
2022/08/05 12:51:11;;;;;;;1.83;1.53;;;13.60;99.90;;;;;;5055517;28;20470;-66
2022/08/05 12:54:02;;;;;;;1.97;1.80;;;13.60;99.90;;;;;;5068267;28;20496;-67
2022/08/05 12:56:49;;;;;;;2.13;1.50;;;13.60;99.90;;;;;;5064262;28;20463;-66
2022/08/05 12:59:23;;;;;;;2.60;1.50;;;13.60;99.90;;;;;;5076556;28;20482;-66
2022/08/05 13:02:17;;;;;;;2.63;1.73;;;13.50;99.90;;;;;;5059916;28;20509;-66
2022/08/05 13:04:48;;;;;;;2.57;1.70;;;13.50;99.90;;;;;;5064859;28;20471;-67
2022/08/05 13:07:25;;;;;;;2.00;1.40;;;13.50;99.90;;;;;;5074821;28;20772;-67
2022/08/05 13:10:17;;;;;;;1.37;1.27;;;13.40;99.90;;;;;;5057871;28;20486;-66
2022/08/05 13:12:49;;;;;;;1.53;1.43;;;13.50;99.90;;;;;;5065041;28;20476;-66
2022/08/05 13:15:33;;;;;;;1.83;1.43;;;13.40;99.90;;;;;;5063391;28;20478;-66
2022/08/05 13:18:11;;;;;;;2.13;1.87;;;13.40;99.90;;;;;;5056775;28;20454;-67
2022/08/05 13:20:48;;;;;;;1.67;1.57;;;13.30;99.90;;;;;;5073896;28;20459;-66
2022/08/05 13:23:19;;;;;;;1.80;1.17;;;13.30;99.90;;;;;;5066757;28;20773;-66
2022/08/05 13:25:52;;;;;;;1.90;1.70;;;13.40;99.90;;;;;;5063337;28;20479;-66
2022/08/05 13:28:30;;;;;;;2.33;1.77;;;13.30;99.90;;;;;;5064358;28;20555;-66
2022/08/05 13:31:03;;;;;;;2.03;1.20;;;13.30;99.90;;;;;;5075706;28;20473;-66
2022/08/05 13:33:43;;;;;;;1.13;1.00;;;13.40;99.90;;;;;;5062893;28;20575;-67
2022/08/05 13:36:34;;;;;;;1.77;1.47;;;13.40;99.90;;;;;;5060829;28;20777;-66
2022/08/05 13:39:06;;;;;;;2.10;1.90;;;13.50;99.90;;;;;;5064430;28;20919;-66
2022/08/05 13:41:57;;;;;;;2.90;1.77;;;13.50;99.90;;;;;;5079222;28;20456;-66
2022/08/05 13:44:28;;;;;;;2.10;1.90;;;13.50;99.90;;;;;;5054467;28;20528;-66
2022/08/05 13:47:00;;;;;;;2.27;1.93;;;13.50;99.90;;;;;;5060149;28;20479;-66
2022/08/05 13:49:37;;;;;;;1.90;1.73;;;13.50;99.90;;;;;;5065441;28;20598;-66
2022/08/05 13:52:16;;;;;;;2.63;2.27;;;13.50;99.90;;;;;;5064271;28;21660;-65
2022/08/05 13:54:58;;;;;;;1.70;1.53;;;13.60;99.90;;;;;;5083344;28;20483;-65
2022/08/05 13:57:30;;;;;;;2.97;1.90;;;13.60;99.90;;;;;;5066140;28;20438;-67